Time;durP1;ratioP1;P1;durP2;ratioP2;P2;SDS_P1;SDS_P2;PMS_P1;PMS_P2;Temp;Humidity;BMP_temperature;BMP_pressure;BME280_temperature;BME280_humidity;BME280_pressure;Samples;Min_cycle;Max_cycle;Signal;HPM_P1;HPM_P2
2022/10/01 00:00:54;;;;;;;4.65;4.20;;;;;;;12.19;76.32;100222.75;6120062;23;20028;-88
2022/10/01 00:03:21;;;;;;;5.80;4.60;;;;;;;12.23;76.77;100232.25;6122410;23;20092;-88
2022/10/01 00:05:56;;;;;;;7.75;5.35;;;;;;;12.18;77.71;100213.13;6122979;23;20009;-88
2022/10/01 00:08:21;;;;;;;5.75;4.82;;;;;;;12.15;77.05;100213.28;6119337;23;20009;-87
2022/10/01 00:10:47;;;;;;;5.75;4.57;;;;;;;12.18;77.26;100199.00;6117540;23;20006;-88
2022/10/01 00:13:12;;;;;;;6.18;4.50;;;;;;;12.13;76.90;100171.94;6121148;23;20025;-88
2022/10/01 00:15:39;;;;;;;5.53;4.47;;;;;;;12.22;76.79;100211.16;6119089;23;20125;-88
2022/10/01 00:18:06;;;;;;;8.05;5.53;;;;;;;12.19;77.40;100184.81;6117996;23;20002;-88
2022/10/01 00:20:31;;;;;;;6.00;4.13;;;;;;;12.17;77.84;100176.97;6116892;23;20461;-88
2022/10/01 00:22:56;;;;;;;5.60;4.65;;;;;;;12.17;77.42;100169.00;6119983;23;20009;-88
2022/10/01 00:25:24;;;;;;;6.07;5.43;;;;;;;12.09;77.91;100150.03;6121636;23;19998;-88
2022/10/01 00:27:50;;;;;;;5.20;4.55;;;;;;;12.06;78.05;100154.66;6119074;23;20441;-87
2022/10/01 00:30:15;;;;;;;4.93;4.25;;;;;;;12.06;77.58;100146.72;6118149;23;20005;-87
2022/10/01 00:32:40;;;;;;;7.05;4.40;;;;;;;12.09;77.52;100163.28;6120457;23;20010;-87
2022/10/01 00:35:10;;;;;;;5.38;4.57;;;;;;;12.19;77.07;100171.56;6119257;23;20453;-87
2022/10/01 00:37:36;;;;;;;6.07;3.60;;;;;;;12.19;76.53;100137.13;6118637;23;20052;-86
2022/10/01 00:40:03;;;;;;;6.15;4.63;;;;;;;12.18;77.57;100154.81;6120331;23;20002;-86
2022/10/01 00:42:29;;;;;;;5.53;4.40;;;;;;;12.18;77.41;100133.63;6118246;23;20017;-87
2022/10/01 00:44:55;;;;;;;5.75;3.97;;;;;;;12.17;76.91;100139.88;6120451;23;20002;-86
2022/10/01 00:47:26;;;;;;;6.88;4.30;;;;;;;12.26;76.99;100172.91;6116721;23;20013;-87
2022/10/01 00:49:59;;;;;;;7.38;4.55;;;;;;;12.14;77.86;100161.22;6120982;23;20013;-87
2022/10/01 00:52:30;;;;;;;11.20;4.85;;;;;;;12.17;77.54;100158.41;6117626;23;20013;-87
2022/10/01 00:55:22;;;;;;;5.03;4.53;;;;;;;12.23;77.21;100154.56;6118860;23;20396;-87
2022/10/01 00:57:48;;;;;;;8.27;4.53;;;;;;;12.17;78.04;100161.06;6107048;23;20088;-87
2022/10/01 01:00:13;;;;;;;4.95;3.92;;;;;;;12.13;78.11;100154.22;6116447;23;20052;-87
2022/10/01 01:02:39;;;;;;;6.53;4.70;;;;;;;12.17;78.34;100152.22;6118200;23;20006;-87
2022/10/01 01:05:07;;;;;;;7.88;4.18;;;;;;;12.17;78.24;100153.13;6119924;23;20009;-87
2022/10/01 01:07:34;;;;;;;5.63;4.28;;;;;;;12.10;79.33;100146.44;6115877;23;20060;-87
2022/10/01 01:10:01;;;;;;;5.80;4.78;;;;;;;12.00;79.81;100150.56;6141912;23;20080;-86
2022/10/01 01:12:39;;;;;;;4.72;4.10;;;;;;;12.02;79.29;100161.91;6116876;23;20434;-86
2022/10/01 01:15:43;;;;;;;4.60;4.20;;;;;;;11.96;80.36;100155.19;6118644;23;20072;-87
2022/10/01 01:18:38;;;;;;;6.85;4.35;;;;;;;11.87;81.29;100112.47;6102046;23;20097;-86
2022/10/01 01:21:48;;;;;;;5.78;4.38;;;;;;;11.87;80.73;100133.66;6116336;23;20014;-86
2022/10/01 01:24:40;;;;;;;6.88;3.33;;;;;;;11.90;80.72;100123.75;6027573;23;20456;-86
2022/10/01 01:27:11;;;;;;;4.15;2.90;;;;;;;11.92;81.05;100070.69;6116518;23;20049;-86
2022/10/01 01:30:02;;;;;;;6.80;3.63;;;;;;;11.89;80.57;100041.72;6117719;23;20010;-87
2022/10/01 01:33:03;;;;;;;5.28;3.70;;;;;;;11.79;81.33;100024.63;6116529;23;20202;-86
2022/10/01 01:35:44;;;;;;;4.07;3.67;;;;;;;11.72;82.12;99998.50;6111397;23;20085;-87
2022/10/01 01:38:13;;;;;;;4.30;3.65;;;;;;;11.63;82.75;99961.97;6117827;23;20006;-87
2022/10/01 01:40:41;;;;;;;7.13;3.67;;;;;;;11.68;82.93;99994.34;6116682;23;20013;-87
2022/10/01 01:43:14;;;;;;;3.85;3.17;;;;;;;11.65;83.03;99980.41;6118631;23;20347;-87
2022/10/01 01:45:41;;;;;;;3.70;3.13;;;;;;;11.68;82.65;99990.84;6141710;23;20002;-87
2022/10/01 01:48:08;;;;;;;5.15;3.55;;;;;;;11.76;83.08;100054.81;6117042;23;20052;-87
2022/10/01 01:50:47;;;;;;;4.45;3.25;;;;;;;11.73;82.88;100039.94;6116742;23;20021;-87
2022/10/01 01:53:14;;;;;;;4.35;3.35;;;;;;;11.73;82.78;100060.25;6115265;23;20009;-87
2022/10/01 01:55:40;;;;;;;3.10;2.63;;;;;;;11.76;82.18;100044.22;6116321;23;20013;-87
2022/10/01 01:58:07;;;;;;;6.20;3.40;;;;;;;11.65;82.96;100025.41;6117993;23;20438;-88
2022/10/01 02:00:32;;;;;;;4.03;2.83;;;;;;;11.75;83.37;100024.81;6117781;23;20018;-87
2022/10/01 02:02:57;;;;;;;4.20;3.30;;;;;;;11.72;82.89;100019.69;6118847;23;20068;-87
2022/10/01 02:05:28;;;;;;;3.97;2.72;;;;;;;11.67;83.83;100026.19;6119359;23;20068;-87
2022/10/01 02:08:06;;;;;;;3.63;3.17;;;;;;;11.68;83.69;100039.34;6115431;23;20013;-87
2022/10/01 02:10:58;;;;;;;2.92;2.63;;;;;;;11.74;83.09;100027.53;6117775;23;20084;-89
2022/10/01 02:13:39;;;;;;;4.97;3.03;;;;;;;11.70;83.71;100024.25;6118031;23;20006;-88
2022/10/01 02:16:29;;;;;;;2.90;2.55;;;;;;;11.65;84.41;100041.31;6141530;23;20438;-88
2022/10/01 02:19:17;;;;;;;3.55;2.65;;;;;;;11.59;84.47;100044.31;6120083;23;20013;-89
2022/10/01 02:22:02;;;;;;;2.50;2.30;;;;;;;11.56;84.75;100025.94;6120115;23;20426;-89
2022/10/01 02:24:42;;;;;;;2.10;1.88;;;;;;;11.61;84.41;100034.47;6122515;23;20068;-89
2022/10/01 02:27:14;;;;;;;2.10;1.92;;;;;;;11.57;84.53;99998.56;6121454;23;20443;-90
2022/10/01 02:29:42;;;;;;;2.78;1.92;;;;;;;11.61;84.46;100015.94;6120418;23;20010;-88
2022/10/01 02:32:09;;;;;;;2.75;2.40;;;;;;;11.59;84.85;100004.59;6120781;23;20458;-89
2022/10/01 02:34:37;;;;;;;3.15;2.70;;;;;;;11.63;84.75;100008.78;6121371;23;20307;-89
2022/10/01 02:37:05;;;;;;;2.60;2.40;;;;;;;11.71;84.15;100003.91;6121135;23;20064;-89
2022/10/01 02:39:32;;;;;;;2.05;1.90;;;;;;;11.68;84.13;99991.69;6121167;23;20010;-90
2022/10/01 02:41:59;;;;;;;2.05;1.85;;;;;;;11.66;84.57;99977.69;6121182;23;20006;-89
2022/10/01 02:44:31;;;;;;;2.38;1.90;;;;;;;11.66;85.41;99977.69;6122183;23;20032;-89
2022/10/01 02:47:06;;;;;;;2.22;2.03;;;;;;;11.67;85.65;99983.84;6120438;23;20078;-89
2022/10/01 02:49:32;;;;;;;2.95;2.05;;;;;;;11.71;84.76;99959.75;6121530;23;20427;-89
2022/10/01 02:52:11;;;;;;;1.92;1.83;;;;;;;11.77;84.78;99965.63;6119107;23;20006;-90
2022/10/01 02:54:47;;;;;;;1.60;1.50;;;;;;;11.79;84.88;99992.84;6140418;23;20450;-90
2022/10/01 02:57:27;;;;;;;2.05;1.85;;;;;;;11.79;84.67;99993.69;6116700;23;20006;-89
2022/10/01 03:00:03;;;;;;;2.30;1.70;;;;;;;11.83;84.35;99981.16;6118635;23;20443;-90
2022/10/01 03:02:30;;;;;;;3.40;1.63;;;;;;;11.86;84.21;100005.69;6119732;23;20005;-89
2022/10/01 03:04:56;;;;;;;1.92;1.83;;;;;;;11.87;83.96;99986.19;6121409;23;20338;-90
2022/10/01 03:07:22;;;;;;;2.63;2.00;;;;;;;11.88;84.27;99977.28;6119196;23;20010;-90
2022/10/01 03:09:48;;;;;;;2.17;1.95;;;;;;;11.88;84.14;99963.19;6120051;23;20028;-89
2022/10/01 03:12:15;;;;;;;2.72;1.80;;;;;;;11.90;84.21;99964.81;6117311;23;20039;-89
2022/10/01 03:14:42;;;;;;;1.50;1.40;;;;;;;11.97;83.98;99967.94;6119795;23;20085;-89
2022/10/01 03:17:08;;;;;;;1.98;1.88;;;;;;;11.90;84.41;99969.28;6118565;23;20517;-89
2022/10/01 03:19:33;;;;;;;1.90;1.45;;;;;;;11.94;84.06;99974.31;6116679;23;20043;-90
2022/10/01 03:21:59;;;;;;;2.25;1.52;;;;;;;11.91;84.16;99950.63;6120434;23;20009;-89
2022/10/01 03:24:24;;;;;;;1.80;1.30;;;;;;;12.06;83.83;99972.69;6118341;23;20121;-89
2022/10/01 03:26:50;;;;;;;2.20;1.38;;;;;;;11.98;83.95;99957.28;6117173;23;20006;-89
2022/10/01 03:29:15;;;;;;;1.90;1.77;;;;;;;12.06;83.66;99954.16;6117943;23;20009;-89
2022/10/01 03:31:40;;;;;;;2.50;1.35;;;;;;;12.08;83.98;99964.69;6118691;23;20040;-89
2022/10/01 03:34:06;;;;;;;1.63;1.52;;;;;;;12.08;83.93;99976.13;6118129;23;20014;-88
2022/10/01 03:36:31;;;;;;;1.40;1.30;;;;;;;12.09;83.66;99980.47;6118768;23;20096;-89
2022/10/01 03:38:56;;;;;;;1.45;1.30;;;;;;;12.09;83.48;99959.28;6119091;23;20016;-89
2022/10/01 03:41:22;;;;;;;1.73;1.48;;;;;;;12.11;84.03;99972.41;6118399;23;20056;-90
2022/10/01 03:43:47;;;;;;;1.40;1.30;;;;;;;12.12;83.88;99972.31;6118791;23;20009;-89
2022/10/01 03:46:13;;;;;;;1.75;1.25;;;;;;;12.16;83.82;99981.78;6117160;23;20060;-89
2022/10/01 03:48:39;;;;;;;0.88;0.88;;;;;;;12.20;83.35;99980.66;6118006;23;20042;-89
2022/10/01 03:51:04;;;;;;;1.10;1.10;;;;;;;12.19;83.29;99971.00;6121428;23;20366;-89
2022/10/01 03:53:30;;;;;;;2.35;1.20;;;;;;;12.17;83.90;99961.44;6120425;23;20017;-90
2022/10/01 03:55:56;;;;;;;1.23;1.00;;;;;;;12.25;83.45;99969.78;6118338;23;20069;-89
2022/10/01 03:58:22;;;;;;;0.90;0.90;;;;;;;12.27;83.61;99978.50;6117346;23;20387;-88
2022/10/01 04:00:48;;;;;;;1.00;1.00;;;;;;;12.33;83.94;99977.28;6115522;23;20053;-89
2022/10/01 04:03:14;;;;;;;0.98;0.98;;;;;;;12.30;83.97;99983.59;6117709;23;20012;-89
2022/10/01 04:05:41;;;;;;;0.90;0.90;;;;;;;12.34;83.76;99992.22;6121194;23;20314;-88
2022/10/01 04:08:06;;;;;;;0.88;0.82;;;;;;;12.37;83.86;99989.41;6118955;23;20005;-89
2022/10/01 04:10:32;;;;;;;0.60;0.60;;;;;;;12.40;83.38;99983.91;6118922;23;20013;-89
2022/10/01 04:12:57;;;;;;;0.82;0.82;;;;;;;12.43;83.22;99984.56;6118818;23;20005;-89
2022/10/01 04:15:23;;;;;;;1.98;0.98;;;;;;;12.42;83.46;99984.66;6115787;23;20006;-91
2022/10/01 04:17:49;;;;;;;0.80;0.70;;;;;;;12.45;83.76;99992.41;6117987;23;20006;-91
2022/10/01 04:20:14;;;;;;;0.75;0.75;;;;;;;12.45;83.46;99988.00;6120648;23;20025;-89
2022/10/01 04:22:41;;;;;;;1.20;0.90;;;;;;;12.47;82.94;99986.09;6119111;23;20006;-89
2022/10/01 04:25:09;;;;;;;0.82;0.82;;;;;;;12.52;83.34;99994.59;6118604;23;20009;-89
2022/10/01 04:27:39;;;;;;;0.82;0.82;;;;;;;12.47;83.32;99983.44;6119278;23;20009;-89
2022/10/01 04:30:06;;;;;;;0.50;0.50;;;;;;;12.57;83.15;99993.47;6121095;23;20095;-89
2022/10/01 04:32:32;;;;;;;1.30;0.88;;;;;;;12.61;83.11;99995.84;6120016;23;20333;-89
2022/10/01 04:34:57;;;;;;;0.90;0.90;;;;;;;12.64;83.15;100000.13;6120661;23;20005;-88
2022/10/01 04:37:23;;;;;;;0.65;0.63;;;;;;;12.61;83.32;99987.88;6119719;23;20006;-90
2022/10/01 04:39:49;;;;;;;0.65;0.65;;;;;;;12.66;83.49;99999.06;6120024;23;20006;-89
2022/10/01 04:42:14;;;;;;;1.17;0.90;;;;;;;12.70;83.32;100005.88;6116347;23;20006;-89
2022/10/01 04:44:40;;;;;;;0.75;0.75;;;;;;;12.64;83.31;99993.00;6114871;23;20010;-89
2022/10/01 04:47:07;;;;;;;0.77;0.77;;;;;;;12.73;83.64;100004.84;6118813;23;20002;-89
2022/10/01 04:49:33;;;;;;;0.70;0.70;;;;;;;12.75;83.42;100014.38;6121358;23;20006;-89
2022/10/01 04:51:59;;;;;;;2.10;0.93;;;;;;;12.73;83.88;100004.84;6119360;23;20044;-89
2022/10/01 04:54:25;;;;;;;2.80;0.95;;;;;;;12.82;83.33;100017.50;6118106;23;20006;-89
2022/10/01 04:56:50;;;;;;;1.00;0.90;;;;;;;12.79;83.53;100015.06;6119454;23;20060;-90
2022/10/01 04:59:17;;;;;;;1.63;1.00;;;;;;;12.80;83.86;100019.41;6117447;23;20006;-89
2022/10/01 05:01:42;;;;;;;0.90;0.90;;;;;;;12.84;83.66;100028.88;6118728;23;20022;-89
2022/10/01 05:04:07;;;;;;;1.73;1.30;;;;;;;12.82;83.06;100008.69;6118159;23;20427;-89
2022/10/01 05:06:33;;;;;;;0.95;0.90;;;;;;;12.88;82.84;100033.06;6118435;23;20006;-89
2022/10/01 05:08:58;;;;;;;1.50;1.08;;;;;;;12.86;83.80;100018.16;6118972;23;20018;-89
2022/10/01 05:11:24;;;;;;;1.58;1.20;;;;;;;12.88;84.06;100025.09;6117353;23;20006;-89
2022/10/01 05:13:49;;;;;;;1.30;1.20;;;;;;;12.91;83.47;100019.56;6118742;23;20009;-89
2022/10/01 05:16:14;;;;;;;1.10;1.00;;;;;;;12.93;83.80;100022.16;6116799;23;20334;-88
2022/10/01 05:18:40;;;;;;;1.33;1.20;;;;;;;12.89;84.41;100034.75;6118081;23;20376;-89
2022/10/01 05:21:06;;;;;;;2.28;1.38;;;;;;;12.90;84.34;100036.44;6116870;23;20010;-89
2022/10/01 05:23:32;;;;;;;3.58;1.60;;;;;;;12.95;84.05;100044.97;6119415;23;20001;-89
2022/10/01 05:25:59;;;;;;;2.00;1.80;;;;;;;12.91;84.49;100047.91;6119854;23;20108;-89
2022/10/01 05:28:26;;;;;;;1.60;1.50;;;;;;;12.96;84.48;100056.44;6120168;23;20010;-88
2022/10/01 05:30:51;;;;;;;1.58;1.48;;;;;;;12.97;84.43;100053.69;6115099;23;20462;-89
2022/10/01 05:33:16;;;;;;;1.73;1.63;;;;;;;12.97;84.24;100045.75;6119539;23;20076;-89
2022/10/01 05:35:43;;;;;;;1.70;1.60;;;;;;;12.92;84.45;100049.63;6118188;23;20069;-89
2022/10/01 05:38:08;;;;;;;2.70;2.20;;;;;;;12.99;84.56;100061.56;6120769;23;20485;-89
2022/10/01 05:40:34;;;;;;;2.30;2.10;;;;;;;12.94;84.42;100053.03;6120704;23;20010;-88
2022/10/01 05:42:59;;;;;;;2.45;2.25;;;;;;;13.03;85.00;100079.84;6119684;23;20037;-88
2022/10/01 05:45:29;;;;;;;3.65;2.25;;;;;;;13.05;84.79;100077.09;6114722;23;20017;-89
2022/10/01 05:47:57;;;;;;;2.47;2.28;;;;;;;13.05;84.85;100070.94;6116056;23;20013;-89
2022/10/01 05:50:24;;;;;;;2.92;2.33;;;;;;;13.05;84.87;100076.22;6115530;23;20005;-89
2022/10/01 05:52:51;;;;;;;2.53;2.33;;;;;;;13.09;84.72;100089.22;6119882;23;20014;-88
2022/10/01 05:55:17;;;;;;;3.42;2.80;;;;;;;13.10;84.92;100087.41;6117612;23;20017;-89
2022/10/01 05:57:42;;;;;;;3.58;2.58;;;;;;;13.18;84.46;100099.25;6119626;23;20002;-88
2022/10/01 06:00:08;;;;;;;3.03;2.72;;;;;;;13.18;84.57;100091.28;6097270;23;20017;-89
2022/10/01 06:02:33;;;;;;;7.03;3.00;;;;;;;13.16;84.98;100090.56;6121701;23;20009;-89
2022/10/01 06:04:59;;;;;;;3.05;2.80;;;;;;;13.19;84.45;100103.59;6123448;23;20051;-89
2022/10/01 06:07:24;;;;;;;3.75;3.45;;;;;;;13.17;84.98;100086.94;6121348;23;20441;-88
2022/10/01 06:09:50;;;;;;;3.58;3.28;;;;;;;13.18;85.20;100090.44;6121612;23;20072;-89
2022/10/01 06:12:15;;;;;;;3.88;3.55;;;;;;;13.26;84.80;100102.31;6121758;23;20006;-89
2022/10/01 06:14:41;;;;;;;4.28;3.22;;;;;;;13.26;84.95;100102.31;6121883;23;20458;-88
2022/10/01 06:17:06;;;;;;;3.10;2.90;;;;;;;13.24;84.62;100104.22;6115579;23;20090;-89
2022/10/01 06:19:31;;;;;;;3.47;3.17;;;;;;;13.28;85.13;100107.53;6120034;23;20010;-89
2022/10/01 06:21:57;;;;;;;4.93;3.70;;;;;;;13.27;84.88;100114.63;6121865;23;20081;-89
2022/10/01 06:24:22;;;;;;;4.10;3.28;;;;;;;13.31;84.70;100119.78;6122944;23;20334;-89
2022/10/01 06:26:48;;;;;;;4.75;3.38;;;;;;;13.29;84.98;100119.88;6121512;23;20085;-89
2022/10/01 06:29:13;;;;;;;4.35;3.65;;;;;;;13.34;84.93;100115.13;6121151;23;20337;-89
2022/10/01 06:31:38;;;;;;;7.38;3.85;;;;;;;13.32;84.76;100117.00;6119339;23;20052;-89
2022/10/01 06:34:04;;;;;;;5.97;4.15;;;;;;;13.37;84.70;100127.34;6120019;23;20014;-90
2022/10/01 06:36:29;;;;;;;5.18;3.70;;;;;;;13.39;84.94;100121.00;6121177;23;20016;-89
2022/10/01 06:38:54;;;;;;;4.82;3.90;;;;;;;13.44;84.70;100131.31;6122082;23;20077;-89
2022/10/01 06:41:20;;;;;;;5.47;4.78;;;;;;;13.38;85.51;100126.38;6117670;23;20539;-89
2022/10/01 06:43:47;;;;;;;7.03;6.00;;;;;;;13.44;85.37;100136.63;6121621;23;20006;-89
2022/10/01 06:46:12;;;;;;;8.23;6.03;;;;;;;13.49;85.46;100137.19;6122343;23;20431;-89
2022/10/01 06:48:38;;;;;;;7.65;4.88;;;;;;;13.57;84.92;100132.25;6121869;23;20017;-89
2022/10/01 06:51:03;;;;;;;5.85;4.93;;;;;;;13.50;85.17;100121.16;6121381;23;20013;-89
2022/10/01 06:53:28;;;;;;;9.75;5.47;;;;;;;13.62;85.14;100130.16;6121632;23;20585;-89
2022/10/01 06:55:54;;;;;;;5.32;4.85;;;;;;;13.67;84.77;100132.50;6123539;23;20009;-89
2022/10/01 06:58:21;;;;;;;6.10;5.07;;;;;;;13.75;84.89;100141.66;6122507;23;20009;-88
2022/10/01 07:00:48;;;;;;;6.63;5.03;;;;;;;13.79;84.68;100137.00;6118217;23;20395;-90
2022/10/01 07:03:19;;;;;;;7.30;5.55;;;;;;;13.78;84.64;100138.81;6122452;23;20010;-89
2022/10/01 07:05:45;;;;;;;6.63;5.28;;;;;;;13.93;83.95;100146.75;6118508;23;20002;-89
2022/10/01 07:08:11;;;;;;;9.48;5.55;;;;;;;13.99;84.09;100139.25;6121290;23;20017;-89
2022/10/01 07:10:37;;;;;;;5.78;5.22;;;;;;;14.10;83.78;100145.66;6120294;23;19998;-89
2022/10/01 07:13:06;;;;;;;6.93;5.72;;;;;;;14.12;83.97;100151.72;6122163;23;20052;-89
2022/10/01 07:15:32;;;;;;;6.75;5.82;;;;;;;14.11;84.25;100160.66;6122102;23;20394;-90
2022/10/01 07:17:57;;;;;;;7.13;5.95;;;;;;;14.14;83.92;100156.00;6120060;23;20013;-89
2022/10/01 07:20:22;;;;;;;7.78;5.85;;;;;;;14.17;83.34;100153.09;6118060;23;20081;-90
2022/10/01 07:22:48;;;;;;;6.65;5.90;;;;;;;14.22;83.64;100148.38;6118894;23;20397;-89
2022/10/01 07:25:14;;;;;;;7.82;5.65;;;;;;;14.36;83.75;100163.41;6121274;23;20006;-89
2022/10/01 07:27:39;;;;;;;8.05;5.60;;;;;;;14.48;83.56;100173.22;6120415;23;20334;-89
2022/10/01 07:30:06;;;;;;;8.65;6.28;;;;;;;14.59;83.71;100164.53;6121247;23;20009;-89
2022/10/01 07:32:34;;;;;;;9.30;6.57;;;;;;;14.72;82.99;100167.22;6119497;23;20008;-90
2022/10/01 07:34:59;;;;;;;7.07;6.15;;;;;;;14.80;83.05;100165.75;6120962;23;20088;-89
2022/10/01 07:37:24;;;;;;;7.53;5.70;;;;;;;14.90;82.12;100176.59;6120374;23;20038;-90
2022/10/01 07:39:50;;;;;;;9.02;5.70;;;;;;;14.92;82.02;100165.84;6120778;23;20061;-89
2022/10/01 07:42:15;;;;;;;9.30;6.20;;;;;;;14.86;81.85;100179.56;6119085;23;20500;-90
2022/10/01 07:44:40;;;;;;;7.43;6.43;;;;;;;14.79;82.21;100192.47;6120702;23;20446;-89
2022/10/01 07:47:06;;;;;;;10.55;6.40;;;;;;;14.69;82.34;100192.22;6118297;23;20002;-90
2022/10/01 07:49:31;;;;;;;8.60;5.95;;;;;;;14.65;83.04;100204.03;6118557;23;20169;-90
2022/10/01 07:51:57;;;;;;;11.35;6.47;;;;;;;14.59;83.64;100211.56;6118471;23;20010;-89
2022/10/01 07:54:24;;;;;;;9.18;6.18;;;;;;;14.47;84.34;100218.53;6120342;23;20378;-89
2022/10/01 07:56:54;;;;;;;15.45;6.03;;;;;;;14.42;84.72;100231.28;6119352;23;20338;-88
2022/10/01 07:59:23;;;;;;;12.50;7.15;;;;;;;14.26;86.00;100216.31;6119892;23;20127;-90
2022/10/01 08:01:50;;;;;;;12.10;7.55;;;;;;;14.16;86.69;100228.50;6115026;23;20072;-90
2022/10/01 08:07:00;;;;;;;11.75;6.88;;;;;;;14.05;86.74;100231.00;6119735;23;20072;-90
2022/10/01 08:09:26;;;;;;;13.43;8.27;;;;;;;14.07;87.74;100238.88;6142903;23;20427;-90
2022/10/01 08:11:51;;;;;;;15.20;10.25;;;;;;;14.09;87.55;100229.03;6142508;23;20037;-91
2022/10/01 08:14:17;;;;;;;15.88;11.18;;;;;;;14.16;87.67;100231.16;6143794;23;20511;-91
2022/10/01 08:16:43;;;;;;;13.25;9.77;;;;;;;14.24;87.89;100234.19;6117393;23;20005;-91
2022/10/01 08:19:08;;;;;;;14.10;8.77;;;;;;;14.29;87.27;100237.41;6120558;23;20170;-91
2022/10/01 08:21:36;;;;;;;12.32;8.82;;;;;;;14.39;87.19;100237.63;6119397;23;20060;-91
2022/10/01 08:24:03;;;;;;;13.75;9.95;;;;;;;14.60;87.23;100255.84;6118036;23;20041;-92
2022/10/01 08:26:29;;;;;;;11.60;9.38;;;;;;;14.69;86.81;100272.06;6118612;23;20490;-92
2022/10/01 08:28:55;;;;;;;13.55;9.07;;;;;;;14.72;86.58;100269.16;6120378;23;20014;-91
2022/10/01 08:31:20;;;;;;;13.88;9.98;;;;;;;14.75;86.38;100266.31;6118946;23;20005;-92
2022/10/01 08:33:45;;;;;;;12.70;9.27;;;;;;;14.91;85.62;100265.28;6120073;23;20061;-92
2022/10/01 08:36:11;;;;;;;11.68;9.30;;;;;;;15.13;85.12;100264.69;6119308;23;20020;-94
2022/10/01 08:38:36;;;;;;;13.18;9.95;;;;;;;15.33;84.92;100274.81;6119656;23;20040;-93
2022/10/01 08:41:14;;;;;;;15.57;9.88;;;;;;;15.86;83.15;100277.41;6120791;23;20016;-91
2022/10/01 08:43:40;;;;;;;14.20;7.90;;;;;;;16.03;81.15;100274.34;6119970;23;20012;-92
2022/10/01 08:46:13;;;;;;;16.63;8.30;;;;;;;15.82;82.18;100285.59;6120866;23;20017;-92
2022/10/01 08:48:52;;;;;;;9.73;8.25;;;;;;;15.66;82.38;100274.31;6120324;23;20442;-91
2022/10/01 08:51:32;;;;;;;9.48;6.65;;;;;;;15.61;81.71;100291.56;6118744;23;20496;-93
2022/10/01 08:54:09;;;;;;;7.88;6.70;;;;;;;15.62;82.17;100288.81;6121144;23;20085;-92
2022/10/01 08:56:45;;;;;;;8.57;6.55;;;;;;;16.32;80.16;100269.59;6120369;23;20002;-91
2022/10/01 08:59:31;;;;;;;7.93;5.80;;;;;;;17.89;76.40;100283.44;6120765;23;20081;-90
2022/10/01 09:01:58;;;;;;;7.85;5.03;;;;;;;18.78;70.92;100287.78;6119838;23;20045;-89
2022/10/01 09:04:26;;;;;;;7.15;3.40;;;;;;;18.67;69.31;100295.00;6119649;23;20435;-90
2022/10/01 09:07:23;;;;;;;7.80;3.88;;;;;;;17.93;72.49;100278.69;6117742;23;20002;-91
2022/10/01 09:10:14;;;;;;;6.28;3.90;;;;;;;19.04;71.94;100290.97;6117867;23;20112;-90
2022/10/01 09:12:45;;;;;;;5.25;3.30;;;;;;;20.78;64.80;100301.63;6087839;23;20100;-89
2022/10/01 09:15:18;;;;;;;3.35;2.90;;;;;;;21.79;62.65;100294.88;6120340;23;20013;-89
2022/10/01 09:17:57;;;;;;;;;;;;;;;22.76;63.84;100299.75;6117807;23;20010;-89
2022/10/01 09:20:33;;;;;;;3.55;2.38;;;;;;;23.56;58.65;100306.00;6118124;23;19932;-88
2022/10/01 09:23:12;;;;;;;4.57;2.40;;;;;;;23.90;54.48;100308.75;6119968;23;20033;-88
2022/10/01 09:25:39;;;;;;;4.68;2.60;;;;;;;23.11;54.14;100317.78;6118112;23;20040;-89
2022/10/01 09:28:32;;;;;;;8.27;2.40;;;;;;;23.59;57.26;100323.72;6110398;23;20005;-88
2022/10/01 09:31:38;;;;;;;5.13;2.85;;;;;;;24.65;54.38;100314.31;6107713;23;20291;-89
2022/10/01 09:34:13;;;;;;;7.60;2.53;;;;;;;23.59;54.62;100307.53;6117779;23;20084;-90
2022/10/01 09:36:51;;;;;;;6.68;2.35;;;;;;;24.15;53.20;100323.25;6117158;23;20053;-89
2022/10/01 09:39:27;;;;;;;6.38;2.42;;;;;;;23.40;54.29;100327.47;6118918;23;20048;-90
2022/10/01 09:41:52;;;;;;;10.80;3.08;;;;;;;23.24;53.51;100327.34;6117618;23;20010;-91
2022/10/01 09:44:27;;;;;;;10.85;2.15;;;;;;;23.76;52.21;100309.34;6120730;23;20088;-90
2022/10/01 09:46:54;;;;;;;7.20;1.90;;;;;;;23.85;51.00;100321.06;6115798;23;20009;-90
2022/10/01 09:49:33;;;;;;;7.22;2.13;;;;;;;23.53;51.11;100327.91;6117302;23;20036;-90
2022/10/01 09:52:36;;;;;;;6.57;1.95;;;;;;;23.86;52.50;100311.94;6116663;23;20905;-90
2022/10/01 09:55:02;;;;;;;6.55;1.63;;;;;;;24.36;48.33;100314.75;6114116;23;20017;-90
2022/10/01 09:57:33;;;;;;;11.02;2.30;;;;;;;25.01;46.51;100316.75;6116871;23;20020;-90
2022/10/01 10:00:09;;;;;;;5.38;1.48;;;;;;;25.01;46.92;100335.69;6115827;23;20124;-89
2022/10/01 10:02:39;;;;;;;7.07;2.28;;;;;;;25.45;47.71;100330.78;6116893;23;20342;-90
2022/10/01 10:05:19;;;;;;;7.40;2.00;;;;;;;26.84;42.80;100335.78;6118838;23;20387;-90
2022/10/01 10:07:48;;;;;;;7.72;1.65;;;;;;;26.43;41.35;100325.16;6117241;23;20354;-89
2022/10/01 10:10:22;;;;;;;9.15;1.90;;;;;;;25.92;44.19;100331.94;6116862;23;20088;-90
2022/10/01 10:12:55;;;;;;;10.98;1.95;;;;;;;25.53;45.52;100346.19;6116893;23;20068;-90
2022/10/01 10:15:25;;;;;;;9.02;2.60;;;;;;;26.05;45.77;100331.38;6117539;23;20002;-90
2022/10/01 10:17:51;;;;;;;7.18;1.80;;;;;;;25.79;44.97;100337.91;6118979;23;20033;-90
2022/10/01 10:20:28;;;;;;;7.03;2.20;;;;;;;23.64;50.64;100375.41;6115449;23;20010;-89
2022/10/01 10:23:04;;;;;;;9.68;2.22;;;;;;;22.09;55.95;100369.13;6113828;23;20057;-90
2022/10/01 10:25:29;;;;;;;8.52;2.10;;;;;;;21.44;56.80;100388.81;6114574;23;20002;-90
2022/10/01 10:27:55;;;;;;;10.93;2.13;;;;;;;20.57;61.07;100394.94;6115097;23;20021;-91
2022/10/01 10:30:23;;;;;;;8.05;1.85;;;;;;;19.77;63.79;100393.81;6115467;23;20390;-88
2022/10/01 10:32:49;;;;;;;6.00;1.95;;;;;;;19.47;64.02;100394.53;6114163;23;20006;-91
2022/10/01 10:35:21;;;;;;;8.02;2.03;;;;;;;19.84;63.74;100388.75;6113512;23;20002;-89
2022/10/01 10:37:53;;;;;;;11.10;1.70;;;;;;;20.85;58.56;100385.22;6114783;23;20461;-91
2022/10/01 10:40:22;;;;;;;7.25;1.80;;;;;;;22.03;60.12;100401.19;6116841;23;20417;-91
2022/10/01 10:42:55;;;;;;;7.65;1.77;;;;;;;21.89;55.91;100406.03;6091708;23;20442;-91
2022/10/01 10:45:29;;;;;;;10.35;2.03;;;;;;;21.29;58.52;100409.88;6116161;23;20006;-90
2022/10/01 10:47:56;;;;;;;6.93;1.70;;;;;;;21.49;56.63;100408.91;6119472;23;20506;-91
2022/10/01 10:50:39;;;;;;;11.10;2.05;;;;;;;21.25;57.88;100408.47;6117089;23;20486;-90
2022/10/01 10:53:42;;;;;;;7.57;2.08;;;;;;;21.39;56.99;100419.66;6117541;23;20037;-91
2022/10/01 10:56:21;;;;;;;9.70;1.65;;;;;;;20.50;58.52;100420.59;6119700;23;20010;-90
2022/10/01 10:58:47;;;;;;;7.28;1.73;;;;;;;20.16;56.28;100422.69;6118085;23;20010;-91
2022/10/01 11:01:16;;;;;;;9.35;1.95;;;;;;;20.16;58.70;100430.75;6118422;23;20025;-91
2022/10/01 11:03:48;;;;;;;7.45;2.08;;;;;;;19.62;59.01;100438.00;6117757;23;20006;-90
2022/10/01 11:06:17;;;;;;;9.15;1.60;;;;;;;19.04;59.76;100430.28;6117358;23;20092;-92
2022/10/01 11:08:44;;;;;;;11.35;2.17;;;;;;;19.51;59.79;100436.22;6120044;23;20010;-92
2022/10/01 11:11:33;;;;;;;10.57;2.15;;;;;;;21.09;57.01;100447.50;6117807;23;20438;-91
2022/10/01 11:14:22;;;;;;;7.72;1.80;;;;;;;22.37;52.83;100450.84;6119222;23;20010;-92
2022/10/01 11:16:52;;;;;;;7.75;1.80;;;;;;;22.01;53.36;100457.00;6118179;23;20449;-92
2022/10/01 11:19:26;;;;;;;10.45;2.50;;;;;;;21.05;54.77;100466.75;6118446;23;20512;-92
2022/10/01 11:22:21;;;;;;;6.60;1.70;;;;;;;20.17;57.45;100449.41;6115092;23;20234;-92
2022/10/01 11:25:13;;;;;;;7.90;2.35;;;;;;;19.58;57.91;100461.53;6119248;23;20069;-92
2022/10/01 11:27:51;;;;;;;9.57;1.90;;;;;;;20.03;56.96;100463.16;6122057;23;20001;-92
2022/10/01 11:30:23;;;;;;;10.90;1.73;;;;;;;20.56;55.95;100473.78;6119697;23;20013;-91
2022/10/01 11:33:13;;;;;;;10.35;1.90;;;;;;;21.05;57.42;100478.34;6119728;23;20006;-92
2022/10/01 11:35:58;;;;;;;13.30;1.88;;;;;;;21.69;54.31;100482.41;6119257;23;20013;-94
2022/10/01 11:38:48;;;;;;;9.73;1.77;;;;;;;21.15;55.98;100481.88;6120183;23;20010;-92
2022/10/01 11:41:23;;;;;;;9.27;1.90;;;;;;;20.60;56.88;100489.47;6121102;23;20080;-92
2022/10/01 11:43:56;;;;;;;7.97;2.00;;;;;;;20.07;57.14;100504.84;6121895;23;20441;-90